Time;durP1;ratioP1;P1;durP2;ratioP2;P2;SDS_P1;SDS_P2;PMS_P1;PMS_P2;Temp;Humidity;BMP_temperature;BMP_pressure;BME280_temperature;BME280_humidity;BME280_pressure;Samples;Min_cycle;Max_cycle;Signal;HPM_P1;HPM_P2
2022/11/30 00:00:21;;;;;;;5.17;4.70;;;16.80;66.90;17.70;101306.00;;;;5071554;28;20258;-45
2022/11/30 00:02:48;;;;;;;4.73;4.33;;;16.80;66.80;17.70;101313.00;;;;5071194;28;20171;-46
2022/11/30 00:05:14;;;;;;;4.83;4.43;;;16.70;66.60;17.70;101306.00;;;;5071443;28;20413;-46
2022/11/30 00:07:39;;;;;;;5.63;4.50;;;16.70;66.60;17.70;101310.00;;;;5071303;28;20700;-50
2022/11/30 00:10:06;;;;;;;4.70;4.13;;;16.70;66.60;17.70;101308.00;;;;5071489;28;20234;-47
2022/11/30 00:12:32;;;;;;;4.87;4.37;;;16.70;66.60;17.70;101306.00;;;;5053111;28;20270;-45
2022/11/30 00:14:58;;;;;;;5.00;4.60;;;16.70;66.60;17.80;101311.00;;;;5074336;28;20174;-46
2022/11/30 00:17:24;;;;;;;5.17;4.43;;;16.70;66.60;17.80;101311.00;;;;5074541;28;20199;-44
2022/11/30 00:19:49;;;;;;;4.60;4.20;;;16.70;66.60;17.80;101309.00;;;;5071384;28;20176;-45
2022/11/30 00:22:15;;;;;;;4.83;4.43;;;16.70;66.70;17.80;101299.00;;;;5070939;28;20297;-46
2022/11/30 00:24:42;;;;;;;4.57;4.17;;;16.60;66.60;17.80;101307.00;;;;5071208;28;20217;-47
2022/11/30 00:27:07;;;;;;;4.50;4.10;;;16.60;66.60;17.70;101305.00;;;;5070792;28;20623;-45
2022/11/30 00:29:33;;;;;;;5.03;4.60;;;16.60;66.60;17.70;101313.00;;;;5070326;28;20185;-46
2022/11/30 00:31:59;;;;;;;5.03;4.57;;;16.60;66.60;17.70;101314.00;;;;5052464;28;20197;-46
2022/11/30 00:34:25;;;;;;;4.97;4.43;;;16.60;66.60;17.70;101306.00;;;;5070823;28;20176;-45
2022/11/30 00:36:50;;;;;;;5.20;4.70;;;16.60;66.60;17.70;101307.00;;;;5070936;28;20515;-46
2022/11/30 00:39:16;;;;;;;4.97;4.57;;;16.60;66.60;17.70;101306.00;;;;5070755;28;20168;-47
2022/11/30 00:41:42;;;;;;;4.77;4.37;;;16.60;66.70;17.70;101311.00;;;;5070483;28;20271;-46
2022/11/30 00:44:07;;;;;;;4.63;4.23;;;16.60;66.60;17.70;101306.00;;;;5070554;28;20314;-46
2022/11/30 00:46:33;;;;;;;4.50;4.13;;;16.60;66.70;17.70;101301.00;;;;5070201;28;20243;-46
2022/11/30 00:48:59;;;;;;;4.70;4.20;;;16.60;66.70;17.60;101302.00;;;;5070113;28;20234;-46
2022/11/30 00:51:24;;;;;;;5.03;4.63;;;16.60;66.70;17.60;101304.00;;;;5069783;28;20232;-46
2022/11/30 00:53:50;;;;;;;4.70;4.30;;;16.60;66.70;17.60;101310.00;;;;5070184;28;20674;-46
2022/11/30 00:56:16;;;;;;;4.80;4.40;;;16.50;66.60;17.60;101302.00;;;;5070566;28;20201;-45
2022/11/30 00:58:42;;;;;;;5.03;4.53;;;16.50;66.70;17.60;101320.00;;;;5070361;28;20174;-45
2022/11/30 01:01:08;;;;;;;4.80;4.40;;;16.50;66.70;17.60;101318.00;;;;5053029;28;20595;-46
2022/11/30 01:03:33;;;;;;;4.57;4.17;;;16.50;66.70;17.60;101312.00;;;;5035878;28;20212;-46
2022/11/30 01:06:04;;;;;;;5.50;4.37;;;16.50;66.70;17.60;101311.00;;;;5070231;28;20218;-46
2022/11/30 01:08:29;;;;;;;5.00;4.47;;;16.50;66.70;17.60;101312.00;;;;5070154;28;20305;-48
2022/11/30 01:10:56;;;;;;;4.70;4.30;;;16.50;66.70;17.60;101308.00;;;;5052123;28;20280;-47
2022/11/30 01:13:23;;;;;;;4.97;4.50;;;16.40;66.60;17.60;101313.00;;;;5069882;28;20200;-47
2022/11/30 01:15:48;;;;;;;4.90;4.40;;;16.40;66.60;17.60;101310.00;;;;5069697;28;20309;-46
2022/11/30 01:18:14;;;;;;;5.30;4.80;;;16.40;66.60;17.60;101314.00;;;;5069504;28;20268;-45
2022/11/30 01:20:41;;;;;;;4.60;4.20;;;16.40;66.70;17.60;101316.00;;;;5069330;28;20173;-46
2022/11/30 01:23:07;;;;;;;4.83;4.40;;;16.40;66.70;17.60;101316.00;;;;5069366;28;20261;-46
2022/11/30 01:25:33;;;;;;;4.90;4.50;;;16.40;66.80;17.50;101326.00;;;;5068653;28;20174;-45
2022/11/30 01:27:59;;;;;;;4.30;3.90;;;16.40;66.70;17.50;101326.00;;;;5069517;28;20174;-45
2022/11/30 01:30:24;;;;;;;4.67;4.27;;;16.40;66.80;17.50;101322.00;;;;5069158;28;20653;-46
2022/11/30 01:32:50;;;;;;;4.63;4.23;;;16.30;66.70;17.50;101321.00;;;;5069132;28;20177;-46
2022/11/30 01:35:16;;;;;;;4.70;4.30;;;16.40;66.90;17.50;101316.00;;;;5068854;28;20174;-47
2022/11/30 01:37:41;;;;;;;4.83;4.33;;;16.30;66.70;17.40;101318.00;;;;5069252;28;20586;-47
2022/11/30 01:40:08;;;;;;;4.77;4.37;;;16.30;66.80;17.50;101315.00;;;;5069471;28;20165;-46
2022/11/30 01:42:36;;;;;;;4.63;4.23;;;16.30;66.70;17.50;101320.00;;;;5051221;28;20269;-47
2022/11/30 01:45:03;;;;;;;4.70;4.30;;;16.30;66.70;17.50;101306.00;;;;5068931;28;20183;-46
2022/11/30 01:47:38;;;;;;;4.80;4.40;;;16.30;66.70;17.50;101311.00;;;;5068961;28;20194;-45
2022/11/30 01:50:12;;;;;;;4.63;4.23;;;16.30;66.80;17.40;101314.00;;;;5069187;28;20173;-46
2022/11/30 01:52:40;;;;;;;4.57;4.17;;;16.30;66.80;17.40;101317.00;;;;5051296;28;20217;-46
2022/11/30 01:55:20;;;;;;;4.53;4.13;;;16.30;66.80;17.40;101298.00;;;;5051163;28;20173;-44
2022/11/30 01:58:05;;;;;;;4.43;4.03;;;16.20;66.80;17.40;101323.00;;;;5051184;28;20196;-45
2022/11/30 02:00:31;;;;;;;4.60;4.20;;;16.20;66.80;17.40;101324.00;;;;5052281;28;20622;-45
2022/11/30 02:03:23;;;;;;;4.50;4.10;;;16.20;66.80;17.40;101322.00;;;;5050790;28;20201;-45
2022/11/30 02:05:49;;;;;;;4.33;3.93;;;16.20;66.90;17.40;101318.00;;;;5050520;28;20810;-45
2022/11/30 02:08:15;;;;;;;4.10;3.80;;;16.20;66.90;17.40;101298.00;;;;5050825;28;20177;-46
2022/11/30 02:10:45;;;;;;;4.50;4.10;;;16.20;66.90;17.40;101310.00;;;;5050468;28;20207;-46
2022/11/30 02:13:39;;;;;;;4.50;4.10;;;16.20;66.90;17.40;101308.00;;;;5034428;28;20227;-44
2022/11/30 02:16:21;;;;;;;4.40;4.00;;;16.20;66.90;17.30;101305.00;;;;5053249;28;20274;-45
2022/11/30 02:19:40;;;;;;;4.50;4.10;;;16.10;66.90;17.30;101303.00;;;;5052544;28;20181;-46
2022/11/30 02:22:20;;;;;;;4.37;4.00;;;16.10;66.90;17.30;101313.00;;;;5053007;28;20154;-46
2022/11/30 02:24:52;;;;;;;5.03;4.63;;;16.10;66.90;17.30;101314.00;;;;5051832;28;20166;-45
2022/11/30 02:27:58;;;;;;;4.20;3.80;;;16.10;67.00;17.30;101321.00;;;;5068264;28;20194;-45
2022/11/30 02:30:23;;;;;;;4.30;3.90;;;16.10;67.00;17.30;101301.00;;;;5051508;28;20189;-46
2022/11/30 02:32:55;;;;;;;4.40;4.00;;;16.10;67.10;17.30;101308.00;;;;5050359;28;20497;-46
2022/11/30 02:35:24;;;;;;;4.27;3.87;;;16.10;67.00;17.30;101305.00;;;;5050872;28;20257;-46
2022/11/30 02:37:50;;;;;;;4.20;3.90;;;16.10;67.00;17.30;101304.00;;;;5033448;28;20303;-46
2022/11/30 02:40:17;;;;;;;4.37;4.00;;;16.10;67.00;17.30;101314.00;;;;5033452;28;20197;-46
2022/11/30 02:42:42;;;;;;;4.30;4.00;;;16.10;67.00;17.30;101300.00;;;;5068231;28;20181;-46
2022/11/30 02:45:09;;;;;;;4.30;4.00;;;16.10;67.00;17.30;101281.00;;;;5068065;28;20196;-45
2022/11/30 02:47:48;;;;;;;4.20;3.90;;;16.10;67.00;17.30;101301.00;;;;5050157;28;20197;-46
2022/11/30 02:50:21;;;;;;;4.70;4.30;;;16.10;67.00;17.30;101290.00;;;;5050248;28;20161;-46
2022/11/30 02:52:49;;;;;;;4.57;4.17;;;16.10;67.00;17.20;101298.00;;;;5050159;28;20247;-46
2022/11/30 02:55:16;;;;;;;4.07;3.73;;;16.10;67.00;17.30;101305.00;;;;5050402;28;20169;-45
2022/11/30 02:57:42;;;;;;;4.30;4.00;;;16.00;66.90;17.20;101295.00;;;;5055228;28;20201;-46
2022/11/30 03:00:11;;;;;;;4.20;3.90;;;16.00;66.90;17.20;101276.00;;;;5071730;28;20169;-47
2022/11/30 03:02:37;;;;;;;4.23;3.83;;;16.00;67.00;17.20;101291.00;;;;5050500;28;20174;-46
2022/11/30 03:05:04;;;;;;;4.30;3.90;;;16.00;67.00;17.20;101298.00;;;;5067938;28;20247;-46
2022/11/30 03:07:29;;;;;;;4.20;3.90;;;16.00;67.10;17.20;101292.00;;;;5068049;28;20202;-47
2022/11/30 03:09:55;;;;;;;4.30;3.90;;;16.00;67.10;17.20;101299.00;;;;5068131;28;20292;-46
2022/11/30 03:12:21;;;;;;;4.20;3.87;;;16.00;67.10;17.20;101293.00;;;;5067802;28;20204;-46
2022/11/30 03:14:47;;;;;;;4.17;3.83;;;16.00;67.10;17.20;101304.00;;;;5067962;28;20170;-46
2022/11/30 03:17:12;;;;;;;4.20;3.90;;;16.00;67.00;17.20;101302.00;;;;5067750;28;20286;-45
2022/11/30 03:19:38;;;;;;;4.23;3.93;;;16.00;67.10;17.20;101292.00;;;;5067695;28;20204;-46
2022/11/30 03:22:04;;;;;;;4.00;3.70;;;16.00;67.20;17.20;101297.00;;;;5067558;28;20209;-46
2022/11/30 03:24:29;;;;;;;4.23;3.93;;;16.00;67.10;17.10;101302.00;;;;5067737;28;20261;-46
2022/11/30 03:26:55;;;;;;;4.13;3.83;;;15.90;66.90;17.20;101302.00;;;;5067552;28;20812;-45
2022/11/30 03:29:21;;;;;;;3.93;3.63;;;15.90;66.90;17.10;101304.00;;;;5049686;28;20235;-46
2022/11/30 03:31:46;;;;;;;4.00;3.70;;;16.00;67.10;17.10;101302.00;;;;5067046;28;20206;-46
2022/11/30 03:34:12;;;;;;;4.10;3.77;;;15.90;67.00;17.10;101309.00;;;;5067579;28;20276;-48
2022/11/30 03:36:38;;;;;;;4.20;3.90;;;15.90;67.30;17.10;101310.00;;;;5067785;28;20194;-47
2022/11/30 03:39:04;;;;;;;4.17;3.87;;;15.90;67.30;17.10;101304.00;;;;5049938;28;20173;-46
2022/11/30 03:41:29;;;;;;;3.90;3.60;;;15.90;67.30;17.10;101314.00;;;;5067524;28;20182;-46
2022/11/30 03:43:55;;;;;;;3.90;3.60;;;15.90;67.30;17.10;101321.00;;;;5067603;28;20838;-46
2022/11/30 03:46:21;;;;;;;3.87;3.57;;;15.90;67.30;17.10;101325.00;;;;5067474;28;20253;-46
2022/11/30 03:48:47;;;;;;;4.27;3.87;;;15.90;67.40;17.10;101323.00;;;;5070260;28;20177;-46
2022/11/30 03:51:12;;;;;;;4.20;3.80;;;15.90;67.40;17.10;101325.00;;;;5071122;28;20282;-46
2022/11/30 03:53:38;;;;;;;4.00;3.70;;;15.90;67.30;17.10;101325.00;;;;5053377;28;20311;-46
2022/11/30 03:56:06;;;;;;;4.13;3.83;;;15.90;67.20;17.10;101329.00;;;;5071438;28;20216;-45
2022/11/30 03:58:32;;;;;;;3.93;3.63;;;15.90;67.30;17.00;101325.00;;;;5053406;28;20174;-47
2022/11/30 04:01:14;;;;;;;4.00;3.70;;;15.90;67.20;17.00;101325.00;;;;5053524;28;20708;-46
2022/11/30 04:03:40;;;;;;;4.00;3.70;;;15.90;67.30;17.00;101333.00;;;;5071113;28;20543;-46
2022/11/30 04:06:06;;;;;;;4.47;4.00;;;15.80;67.10;17.00;101326.00;;;;5070639;28;20197;-45
2022/11/30 04:08:32;;;;;;;4.07;3.77;;;15.80;67.20;17.00;101323.00;;;;5070911;28;20185;-46
2022/11/30 04:10:59;;;;;;;3.83;3.53;;;15.80;67.60;17.00;101321.00;;;;5070463;28;20585;-46
2022/11/30 04:13:25;;;;;;;3.87;3.57;;;15.90;67.60;17.00;101323.00;;;;5070606;28;20181;-46
2022/11/30 04:15:51;;;;;;;3.90;3.60;;;15.80;67.50;17.00;101318.00;;;;5070670;28;20170;-46
2022/11/30 04:18:17;;;;;;;4.03;3.73;;;15.80;67.40;17.00;101328.00;;;;5070667;28;20321;-46
2022/11/30 04:20:43;;;;;;;4.03;3.73;;;15.90;67.70;17.00;101326.00;;;;5070600;28;20162;-46
2022/11/30 04:23:09;;;;;;;4.33;3.83;;;15.80;67.60;17.00;101320.00;;;;5070526;28;20649;-46
2022/11/30 04:25:39;;;;;;;4.00;3.70;;;15.80;67.60;17.00;101309.00;;;;5070417;28;20184;-47
2022/11/30 04:28:05;;;;;;;4.50;3.93;;;15.80;67.60;17.00;101312.00;;;;5052440;28;20174;-47
2022/11/30 04:30:34;;;;;;;5.47;3.90;;;15.80;67.60;17.00;101316.00;;;;5070430;28;20170;-46
2022/11/30 04:32:59;;;;;;;4.87;3.83;;;15.80;67.60;16.90;101312.00;;;;5070148;28;20641;-46
2022/11/30 04:35:25;;;;;;;3.63;3.33;;;15.80;67.50;16.90;101310.00;;;;5070235;28;20218;-48
2022/11/30 04:37:51;;;;;;;3.90;3.60;;;15.80;67.50;16.90;101304.00;;;;5070002;28;20190;-45
2022/11/30 04:40:17;;;;;;;4.17;3.63;;;15.80;67.50;16.90;101313.00;;;;5070330;28;20170;-45
2022/11/30 04:42:42;;;;;;;5.47;3.63;;;15.80;67.60;16.70;101312.00;;;;5070398;28;20200;-48
2022/11/30 04:45:09;;;;;;;3.90;3.60;;;15.80;67.50;16.90;101307.00;;;;5070503;28;20199;-44
2022/11/30 04:47:34;;;;;;;4.00;3.70;;;15.80;67.40;16.90;101316.00;;;;5070820;28;20692;-46
2022/11/30 04:50:00;;;;;;;4.00;3.67;;;15.80;67.40;16.90;101313.00;;;;5070996;28;20173;-46
2022/11/30 04:52:26;;;;;;;5.33;3.80;;;15.80;67.40;16.90;101311.00;;;;5070646;28;20205;-45
2022/11/30 04:54:52;;;;;;;4.43;3.70;;;15.80;67.30;16.90;101321.00;;;;5070755;28;20173;-46
2022/11/30 04:57:17;;;;;;;4.30;3.90;;;15.70;67.20;16.90;101312.00;;;;5070475;28;20202;-46
2022/11/30 04:59:43;;;;;;;4.00;3.70;;;15.70;67.20;16.90;101324.00;;;;5069693;28;20173;-46
2022/11/30 05:02:09;;;;;;;4.40;4.00;;;15.70;67.20;16.80;101327.00;;;;5067190;28;20212;-45
2022/11/30 05:04:35;;;;;;;4.37;3.97;;;15.70;67.30;16.80;101335.00;;;;5069594;28;20173;-46
2022/11/30 05:07:00;;;;;;;5.73;4.47;;;15.70;67.20;16.80;101327.00;;;;5052401;28;20202;-46
2022/11/30 05:09:26;;;;;;;5.47;4.83;;;15.70;67.20;16.80;101333.00;;;;5070554;28;20208;-46
2022/11/30 05:11:52;;;;;;;5.40;4.90;;;15.70;67.20;16.80;101334.00;;;;5069886;28;20210;-45
2022/11/30 05:14:18;;;;;;;6.97;5.20;;;15.70;67.20;16.80;101342.00;;;;5070284;28;20173;-45
2022/11/30 05:16:47;;;;;;;6.30;5.70;;;15.70;67.10;16.80;101336.00;;;;5075604;28;20781;-45
2022/11/30 05:19:13;;;;;;;7.43;5.70;;;15.60;67.10;16.80;101344.00;;;;5074545;28;20170;-46
2022/11/30 05:21:39;;;;;;;6.83;6.13;;;15.70;67.20;16.80;101356.00;;;;5069752;28;20186;-46
2022/11/30 05:24:06;;;;;;;10.27;5.87;;;15.70;67.90;16.70;101356.00;;;;5070030;28;20173;-48
2022/11/30 05:26:31;;;;;;;11.60;6.80;;;15.70;67.50;16.70;101363.00;;;;5051965;28;20201;-47
2022/11/30 05:28:57;;;;;;;11.50;7.10;;;15.70;67.50;16.70;101349.00;;;;5070134;28;20252;-47
2022/11/30 05:31:23;;;;;;;15.50;8.00;;;15.70;67.50;16.70;101347.00;;;;5069660;28;20204;-46
2022/11/30 05:33:50;;;;;;;16.73;8.20;;;15.60;67.60;16.40;101345.00;;;;5070258;28;20165;-44
2022/11/30 05:36:16;;;;;;;15.00;8.10;;;15.70;68.50;16.70;101348.00;;;;5052210;28;20246;-44
2022/11/30 05:38:42;;;;;;;17.90;8.50;;;15.60;68.20;16.70;101355.00;;;;5072764;28;20191;-44
2022/11/30 05:41:08;;;;;;;17.40;8.03;;;15.60;68.00;16.70;101349.00;;;;5078656;28;20219;-46
2022/11/30 05:43:34;;;;;;;16.93;8.10;;;15.60;68.80;16.60;101361.00;;;;5070707;28;20666;-44
2022/11/30 05:46:04;;;;;;;14.63;7.73;;;15.60;69.00;16.70;101349.00;;;;5069767;28;20197;-45
2022/11/30 05:48:30;;;;;;;15.83;8.90;;;15.60;68.60;16.70;101349.00;;;;5070228;28;20170;-45
2022/11/30 05:51:14;;;;;;;13.27;8.60;;;15.60;68.70;16.70;101351.00;;;;5069456;28;20391;-45
2022/11/30 05:53:40;;;;;;;13.00;8.53;;;15.60;68.30;16.70;101348.00;;;;5054709;28;20180;-45
2022/11/30 05:56:13;;;;;;;13.27;8.73;;;15.60;68.20;16.70;101347.00;;;;5050993;28;20276;-44
2022/11/30 05:58:39;;;;;;;16.77;9.50;;;15.60;68.20;16.60;101356.00;;;;5069514;28;20166;-43
2022/11/30 06:01:05;;;;;;;15.97;9.43;;;15.60;68.10;16.60;101348.00;;;;5069253;28;20269;-44
2022/11/30 06:03:31;;;;;;;15.60;9.57;;;15.60;68.00;16.60;101356.00;;;;5068811;28;20182;-44
2022/11/30 06:05:57;;;;;;;11.23;9.10;;;15.60;67.80;16.60;101358.00;;;;5068971;28;20572;-45
2022/11/30 06:08:23;;;;;;;12.87;9.83;;;15.60;67.80;16.60;101357.00;;;;5051197;28;20182;-44
2022/11/30 06:10:49;;;;;;;13.87;9.33;;;15.60;67.70;16.60;101369.00;;;;5068893;28;20250;-44
2022/11/30 06:13:15;;;;;;;11.13;9.30;;;15.60;67.50;16.60;101364.00;;;;5069181;28;20212;-44
2022/11/30 06:15:41;;;;;;;11.63;9.17;;;15.60;67.60;16.60;101345.00;;;;5069259;28;20654;-45
2022/11/30 06:18:07;;;;;;;12.00;8.80;;;15.50;67.40;16.60;101357.00;;;;5051549;28;20224;-43
2022/11/30 06:20:33;;;;;;;12.00;8.80;;;15.50;67.40;16.60;101360.00;;;;5069407;28;20203;-44
2022/11/30 06:22:59;;;;;;;10.30;8.53;;;15.50;67.40;16.60;101355.00;;;;5051189;28;20256;-46
2022/11/30 06:25:25;;;;;;;10.97;8.03;;;15.50;67.50;16.60;101349.00;;;;5071606;28;20205;-44
2022/11/30 06:27:51;;;;;;;10.67;7.97;;;15.50;67.40;16.60;101361.00;;;;5072329;28;20193;-44
2022/11/30 06:30:17;;;;;;;11.60;8.60;;;15.50;67.40;16.60;101362.00;;;;5069149;28;20222;-44
2022/11/30 06:32:46;;;;;;;9.53;8.17;;;15.50;67.40;16.60;101357.00;;;;5068925;28;20205;-45
2022/11/30 06:35:13;;;;;;;10.27;8.10;;;15.50;67.30;16.60;101356.00;;;;5068742;28;20252;-45
2022/11/30 06:37:38;;;;;;;8.90;7.83;;;15.50;67.40;16.60;101366.00;;;;5068532;28;20264;-45
2022/11/30 06:40:05;;;;;;;10.43;7.43;;;15.50;67.30;16.60;101364.00;;;;5069142;28;20768;-45
2022/11/30 06:42:31;;;;;;;8.70;7.20;;;15.50;67.30;16.60;101361.00;;;;5069188;28;20269;-43
2022/11/30 06:44:57;;;;;;;7.77;6.97;;;15.50;67.30;16.60;101366.00;;;;5052207;28;20188;-43
2022/11/30 06:47:23;;;;;;;9.00;6.80;;;15.50;67.30;16.60;101368.00;;;;5068438;28;20205;-44
2022/11/30 06:49:48;;;;;;;9.27;7.27;;;15.50;67.30;16.60;101368.00;;;;5069355;28;20256;-44
2022/11/30 06:52:14;;;;;;;9.37;7.27;;;15.50;67.30;16.60;101375.00;;;;5068456;28;20390;-45
2022/11/30 06:54:40;;;;;;;8.00;6.80;;;15.50;67.30;16.60;101375.00;;;;5068111;28;20176;-45
2022/11/30 06:57:06;;;;;;;7.67;6.90;;;15.50;67.30;16.60;101379.00;;;;5068966;28;20674;-45
2022/11/30 06:59:31;;;;;;;9.37;7.23;;;15.50;67.30;16.60;101350.00;;;;5068741;28;20193;-43
2022/11/30 07:01:57;;;;;;;8.13;6.83;;;15.50;67.30;16.60;101382.00;;;;5069661;28;20184;-44
2022/11/30 07:04:23;;;;;;;6.77;6.17;;;15.50;67.30;16.60;101383.00;;;;5069340;28;20174;-44
2022/11/30 07:06:49;;;;;;;8.23;6.50;;;15.40;67.20;16.50;101383.00;;;;5068369;28;20197;-45
2022/11/30 07:09:14;;;;;;;6.80;6.10;;;15.40;68.00;16.50;101384.00;;;;5068677;28;20204;-44
2022/11/30 07:11:40;;;;;;;6.40;5.80;;;15.40;67.20;16.50;101390.00;;;;5068178;28;20197;-44
2022/11/30 07:14:06;;;;;;;6.73;6.10;;;15.40;68.00;16.50;101323.00;;;;5068483;28;20165;-44
2022/11/30 07:16:31;;;;;;;8.27;6.37;;;15.40;67.20;16.50;101389.00;;;;5068051;28;20742;-44
2022/11/30 07:18:57;;;;;;;7.63;6.80;;;15.40;67.20;16.50;101400.00;;;;5068505;28;20201;-44
2022/11/30 07:21:23;;;;;;;6.67;6.07;;;15.40;67.20;16.50;101394.00;;;;5068285;28;20174;-44
2022/11/30 07:26:33;;;;;;;6.63;5.70;;;15.40;67.20;16.50;101398.00;;;;5072271;28;20200;-44
2022/11/30 07:28:59;;;;;;;6.77;6.03;;;15.30;67.00;16.50;101412.00;;;;5054696;28;20169;-44
2022/11/30 07:31:29;;;;;;;6.73;6.03;;;15.30;67.00;16.50;101410.00;;;;5072009;28;20205;-44
2022/11/30 07:33:55;;;;;;;6.40;5.80;;;15.40;67.20;16.50;101406.00;;;;5076375;28;20181;-44
2022/11/30 07:36:23;;;;;;;6.63;5.73;;;15.30;67.00;16.40;101426.00;;;;5079973;28;20216;-45
2022/11/30 07:38:48;;;;;;;5.63;5.10;;;15.30;67.00;16.50;101421.00;;;;5054849;28;20726;-44
2022/11/30 07:41:14;;;;;;;5.70;5.10;;;15.30;67.00;16.40;101421.00;;;;5071833;28;20169;-45
2022/11/30 07:43:40;;;;;;;6.20;5.53;;;15.30;67.00;16.50;101430.00;;;;5072214;28;20178;-44
2022/11/30 07:46:06;;;;;;;5.90;5.40;;;15.40;68.00;16.40;101427.00;;;;5071431;28;20742;-44
2022/11/30 07:48:32;;;;;;;6.20;5.60;;;15.30;67.00;16.40;101435.00;;;;5072129;28;20182;-46
2022/11/30 07:51:19;;;;;;;5.93;5.33;;;15.30;67.10;16.40;101431.00;;;;5071955;28;20239;-44
2022/11/30 07:53:45;;;;;;;6.00;5.40;;;15.30;67.00;16.40;101423.00;;;;5072048;28;20766;-45
2022/11/30 07:56:16;;;;;;;5.87;5.27;;;15.30;67.00;16.40;101429.00;;;;5071580;28;20281;-43
2022/11/30 07:58:42;;;;;;;5.90;5.33;;;15.30;67.10;16.40;101434.00;;;;5054950;28;20154;-44
2022/11/30 08:01:13;;;;;;;5.63;5.10;;;15.20;66.90;16.40;101431.00;;;;5071474;28;20688;-43
2022/11/30 08:03:39;;;;;;;5.70;5.17;;;15.30;67.00;16.40;101432.00;;;;5053975;28;20201;-44
2022/11/30 08:06:12;;;;;;;6.00;5.40;;;15.30;67.00;16.40;101438.00;;;;5072307;28;20315;-44
2022/11/30 08:08:43;;;;;;;5.90;5.40;;;15.30;67.00;16.40;101440.00;;;;5073657;28;20189;-47
2022/11/30 08:11:11;;;;;;;5.70;5.20;;;15.20;66.90;16.40;101444.00;;;;5054858;28;20198;-45
2022/11/30 08:13:37;;;;;;;5.50;5.00;;;15.30;67.00;16.40;101454.00;;;;5054050;28;20166;-43
2022/11/30 08:16:06;;;;;;;5.73;5.23;;;15.20;66.90;16.40;101456.00;;;;5073388;28;20200;-44
2022/11/30 08:18:31;;;;;;;5.50;4.97;;;15.20;67.00;16.40;101451.00;;;;5071891;28;20181;-44
2022/11/30 08:21:05;;;;;;;6.50;5.13;;;15.20;66.90;16.30;101454.00;;;;5077150;28;20165;-45
2022/11/30 08:23:32;;;;;;;6.10;4.93;;;15.20;67.20;16.30;101457.00;;;;5017651;28;20194;-45
2022/11/30 08:26:06;;;;;;;5.93;4.90;;;15.20;67.20;16.30;101447.00;;;;5075820;28;20584;-44
2022/11/30 08:28:34;;;;;;;5.87;5.07;;;15.10;67.20;16.30;101444.00;;;;5070717;28;20642;-44
2022/11/30 08:31:05;;;;;;;6.27;5.10;;;15.20;67.80;16.30;101443.00;;;;5065260;28;20201;-44
2022/11/30 08:33:32;;;;;;;5.33;4.90;;;15.30;68.10;16.30;101452.00;;;;5052948;28;20174;-44
2022/11/30 08:36:17;;;;;;;5.30;4.80;;;15.30;67.90;16.40;101441.00;;;;5068568;28;20204;-43
2022/11/30 08:38:43;;;;;;;5.77;4.73;;;15.50;67.80;16.40;101448.00;;;;5052363;28;20165;-45
2022/11/30 08:41:11;;;;;;;4.87;4.47;;;15.60;67.40;16.40;101454.00;;;;5066272;28;20553;-44
2022/11/30 08:43:37;;;;;;;5.20;4.70;;;15.80;67.30;16.50;101456.00;;;;5049966;28;20199;-44
2022/11/30 08:46:05;;;;;;;4.93;4.47;;;15.90;67.00;16.60;101458.00;;;;5050087;28;20338;-44
2022/11/30 08:48:31;;;;;;;5.27;4.40;;;16.00;67.60;16.70;101460.00;;;;5031429;28;20186;-45
2022/11/30 08:51:01;;;;;;;4.60;4.17;;;16.20;66.90;16.70;101465.00;;;;5049136;28;20178;-44
2022/11/30 08:53:27;;;;;;;8.70;4.20;;;16.40;66.60;16.80;101461.00;;;;5050214;28;20678;-44
2022/11/30 08:55:59;;;;;;;6.47;4.33;;;16.50;66.30;16.90;101461.00;;;;5052378;28;20158;-43
2022/11/30 08:58:26;;;;;;;4.33;3.90;;;16.70;66.20;17.00;101462.00;;;;5051921;28;20174;-44
2022/11/30 09:00:52;;;;;;;6.20;4.10;;;16.70;66.00;17.10;101465.00;;;;5050228;28;20205;-45
2022/11/30 09:03:18;;;;;;;5.10;4.00;;;16.80;66.00;17.20;101466.00;;;;5050412;28;20189;-44
2022/11/30 09:05:44;;;;;;;6.07;4.10;;;16.90;66.10;17.30;101472.00;;;;5050014;28;20197;-45
2022/11/30 09:08:10;;;;;;;5.00;4.30;;;16.90;66.00;17.30;101470.00;;;;5049703;28;20178;-46
2022/11/30 09:10:35;;;;;;;6.00;4.43;;;17.00;66.00;17.40;101475.00;;;;5049269;28;20178;-47
2022/11/30 09:13:01;;;;;;;10.40;4.33;;;16.90;66.10;17.20;101479.00;;;;5048531;28;20291;-44
2022/11/30 09:15:27;;;;;;;6.60;4.70;;;16.90;66.10;17.50;101471.00;;;;5049375;28;20166;-45
2022/11/30 09:17:52;;;;;;;7.50;5.17;;;16.90;66.50;17.50;101479.00;;;;5049397;28;20636;-44
2022/11/30 09:20:18;;;;;;;8.57;5.80;;;17.00;67.10;17.50;101492.00;;;;5049212;28;20208;-45
2022/11/30 09:22:44;;;;;;;9.57;6.17;;;17.00;67.70;17.60;101477.00;;;;5048692;28;20166;-46
2022/11/30 09:25:10;;;;;;;6.63;5.73;;;17.10;68.40;17.60;101485.00;;;;5006198;28;20182;-45
2022/11/30 09:27:35;;;;;;;7.70;5.93;;;17.10;68.80;17.60;101480.00;;;;5070851;28;20259;-43
2022/11/30 09:30:01;;;;;;;8.30;6.27;;;17.20;69.10;17.70;101481.00;;;;5069268;28;20973;-45
2022/11/30 09:32:28;;;;;;;7.27;6.43;;;17.20;69.20;17.70;101479.00;;;;5068818;28;20198;-46
2022/11/30 09:34:53;;;;;;;7.47;5.97;;;17.30;69.70;17.80;101485.00;;;;5069105;28;20532;-44
2022/11/30 09:37:19;;;;;;;9.17;6.97;;;17.30;70.10;17.80;101477.00;;;;5069399;28;20194;-44
2022/11/30 09:39:45;;;;;;;7.47;6.33;;;17.20;71.00;17.80;101488.00;;;;5069500;28;20173;-44
2022/11/30 09:42:23;;;;;;;8.03;6.03;;;17.30;71.80;17.90;101476.00;;;;5070905;28;20387;-44
2022/11/30 09:45:03;;;;;;;6.50;5.90;;;17.40;72.20;17.90;101485.00;;;;5050459;28;20582;-45
2022/11/30 09:48:21;;;;;;;11.73;6.90;;;17.40;72.90;17.90;101484.00;;;;5068456;28;20573;-47
2022/11/30 09:50:47;;;;;;;11.20;6.37;;;17.40;73.70;17.90;101470.00;;;;5069152;28;20182;-46
2022/11/30 09:53:33;;;;;;;17.67;6.73;;;17.40;73.70;18.00;101481.00;;;;5051153;28;20178;-45
2022/11/30 09:55:59;;;;;;;20.57;7.47;;;17.40;74.50;18.00;101477.00;;;;5036507;28;20678;-45
2022/11/30 09:59:19;;;;;;;13.10;6.67;;;17.50;75.50;18.00;101481.00;;;;5051699;28;20204;-45
2022/11/30 10:01:46;;;;;;;11.50;6.07;;;17.50;74.90;18.00;101484.00;;;;5006409;28;20205;-45
2022/11/30 10:04:28;;;;;;;11.23;6.07;;;17.40;74.60;18.00;101481.00;;;;5049699;28;20193;-45
2022/11/30 10:07:08;;;;;;;15.50;6.50;;;17.50;73.90;18.00;101487.00;;;;5068707;28;20203;-44
2022/11/30 10:09:52;;;;;;;11.33;5.63;;;17.50;73.80;18.00;101480.00;;;;5051132;28;20166;-45
2022/11/30 10:12:27;;;;;;;10.70;5.63;;;17.50;73.40;18.10;101478.00;;;;5051377;28;20289;-43
2022/11/30 10:15:31;;;;;;;12.10;5.77;;;17.50;73.20;18.10;101471.00;;;;5057233;28;20894;-45
2022/11/30 10:18:21;;;;;;;10.83;5.47;;;17.50;73.00;18.10;101482.00;;;;5052135;28;20746;-45
2022/11/30 10:21:24;;;;;;;9.00;5.90;;;17.50;72.60;18.10;101476.00;;;;5033161;28;20155;-45
2022/11/30 10:24:18;;;;;;;7.77;5.30;;;17.60;72.80;18.10;101468.00;;;;4998579;28;20175;-45
2022/11/30 10:27:42;;;;;;;8.00;5.17;;;17.50;72.70;18.10;101480.00;;;;5051713;28;20566;-45
2022/11/30 10:30:23;;;;;;;8.17;5.40;;;17.50;72.50;18.10;101467.00;;;;5033776;28;20190;-44
2022/11/30 10:32:54;;;;;;;8.07;5.27;;;17.50;72.40;18.10;101467.00;;;;5062465;28;20209;-45
2022/11/30 10:35:36;;;;;;;7.57;5.33;;;17.50;72.20;18.10;101473.00;;;;5070528;28;20184;-43
2022/11/30 10:38:35;;;;;;;8.37;5.57;;;17.60;72.20;18.10;101475.00;;;;5052796;28;20220;-44
2022/11/30 10:41:34;;;;;;;7.00;5.23;;;17.60;72.00;18.10;101468.00;;;;5038052;28;20156;-45
2022/11/30 10:44:06;;;;;;;8.07;5.60;;;17.60;71.70;18.10;101463.00;;;;5053689;28;20213;-44
2022/11/30 10:46:36;;;;;;;8.30;4.93;;;17.50;71.50;18.10;101455.00;;;;5052127;28;20543;-44
2022/11/30 10:49:11;;;;;;;6.10;5.13;;;17.50;71.40;18.20;101450.00;;;;5051468;28;20197;-45
2022/11/30 10:51:39;;;;;;;9.00;5.23;;;17.60;71.50;18.20;101458.00;;;;5050608;28;20197;-45
2022/11/30 10:54:13;;;;;;;6.17;5.07;;;17.50;71.10;18.20;101446.00;;;;5050654;28;20848;-43
2022/11/30 10:56:39;;;;;;;6.63;5.03;;;17.60;71.30;18.20;101459.00;;;;5050128;28;20201;-44